Portada
METAR-TAF:

METAR-TAF

Aeropuertos :

Souillac

Brive-la-Gaillarde, Francia

latitud: 45-02-28N, longitud: 001-28-59E, altitud: 311 m

Observación

El informe se hizo hace 23 minutos, a las 03:00 UTC
Viento 2 kt con dirección variable
Temperatura 17°C
Humedad 88%
Presión 1013 hPa
Visibilidad 10 km o más
Cielo cubierto a una altura de 4000 ft

METAR: LFSL 300300Z AUTO VRB02KT 9999 OVC040 17/15 Q1013 NOSIG

Hora: 05:23 (03:23 UTC)

Pronóstico

El informe se hizo hace 1 hora y 23 minutos, a las 02:00 UTC
Pronóstico válido del 30 a las 03 UTC al 30 a las 12 UTC
Viento 3 kt con dirección variable
Visibilidad 10 km o más
Cielo nuboso a una altura de 3000 ft
Cielo nuboso a una altura de 10000 ft

TAF: LFSL 300200Z 3003/3012 VRB03KT 9999 BKN030 BKN100

Observaciones y pronósticos meteorológicos de más de 4000 aeropuertos (mensajes METAR y TAF).

Los puntos amarillos y rojos representan las estaciones disponibles.

Ponga el ratón en el punto deseado para ver el nombre de la estación.

Haga clic para ver las observaciones y los pronósticos meteorológicos.

Para cambiar el mapa : haga clic en los botones verdes con una cruz de color negro para hacer un zoom, en el botón verde con un guión para alejar o en las flechas verdes para mapas adyacentes.


METAR-TAF: